Aérodrome :
LOGIN :

S'inscrire | Disclaimer

   EN    FR    IT 

 










Légende :    VFR   VFR Marginal   IFR   IFR Intensif   IFR Très Intensif
Visi : 
Plafond : 
>= 8 km
>= 3000ft
5 à 8 km
1000 à 3000 ft
1500m à 5 km
500 à 1000 ft
800 à 1500m
200 à 500 ft
< 800m
< 200 ft
Symboles :   Orages  Brouillard  Fortes neiges  Fortes précipitations  Vent > 20 kt
SIGMETs :   Divers  Orages  Givrage  Turbulence  Onde Orograph.  Cendres Volcan.







- Altitude de l'aérodrome : 614 ft
- Code IATA : CRL


EBCI - Charleroi

DERNIER METAR :
  • 190820Z 25006KT 6000 BKN007 BKN012 16/15 Q1025 TEMPO 3500 -DZ

METARs EXPIRÉS :
  • 190750Z 24008KT 4800 -DZ BR BKN007 BKN023 16/15 Q1025 TEMPO 2500 -DZ
  • 190720Z 23009KT 4000 -DZ BR BKN007 BKN023 16/15 Q1025 TEMPO 2500 -DZ
  • 190650Z 24009KT 9999 BKN007 BKN023 16/15 Q1025 TEMPO SCT007
  • 190620Z 24009KT 9999 BKN007 BKN023 16/14 Q1024 TEMPO SCT007
  • 190550Z 23009KT 9999 BKN007 BKN023 16/14 Q1024 TEMPO SCT007

TAF AMD TAF EBCI
Valide du 19 à 06h jusqu'au 20 à 12h UTC


190828Z 1906/2012 24008KT 9999 BKN008
PROB30
TEMPO 1906/1909 4000 BR BKN004
BECMG 1912/1914 BKN017
PROB40
TEMPO 1923/2008 2800 BR BKN004
Pas de NOTAMs connus pour ce terrain.



MET'MAP, la Météo Aéronautique d'un coup d'oeil ! - Copyright ORBIFLY Décembre 2007 - Disclaimer

ORBIFLY MET'MAP TEAM :

Programmation & Développement : Alexandra Zaïnal
Conception & Développement : Baudouin d'Aumeries
Co-Programmation & Développement : Marc-Olivier Méhu
Soutien technique & logistique : Manuel Goepfert

Contact : metmap@orbifly.com




SOURCES & CREDITS :

   NOAA